sensor_id;sensor_type;location;lat;lon;timestamp;P1;durP1;ratioP1;P2;durP2;ratioP2
10244;SDS011;5167;52.164;10.530;2024-01-10T00:01:35;23.53;;;10.83;;
10244;SDS011;5167;52.164;10.530;2024-01-10T00:04:00;22.00;;;10.67;;
10244;SDS011;5167;52.164;10.530;2024-01-10T00:06:26;25.13;;;11.40;;
10244;SDS011;5167;52.164;10.530;2024-01-10T00:08:51;20.77;;;10.47;;
10244;SDS011;5167;52.164;10.530;2024-01-10T00:11:17;22.80;;;11.17;;
10244;SDS011;5167;52.164;10.530;2024-01-10T00:13:42;28.43;;;11.27;;
10244;SDS011;5167;52.164;10.530;2024-01-10T00:16:08;21.23;;;10.73;;
10244;SDS011;5167;52.164;10.530;2024-01-10T00:18:36;25.30;;;10.90;;
10244;SDS011;5167;52.164;10.530;2024-01-10T00:21:01;24.53;;;11.83;;
10244;SDS011;5167;52.164;10.530;2024-01-10T00:23:27;26.80;;;10.20;;
10244;SDS011;5167;52.164;10.530;2024-01-10T00:25:52;34.00;;;10.50;;
10244;SDS011;5167;52.164;10.530;2024-01-10T00:28:18;24.87;;;11.57;;
10244;SDS011;5167;52.164;10.530;2024-01-10T00:30:46;23.23;;;11.57;;
10244;SDS011;5167;52.164;10.530;2024-01-10T00:33:15;25.90;;;11.10;;
10244;SDS011;5167;52.164;10.530;2024-01-10T00:35:41;29.17;;;11.20;;
10244;SDS011;5167;52.164;10.530;2024-01-10T00:38:06;22.00;;;11.87;;
10244;SDS011;5167;52.164;10.530;2024-01-10T00:40:32;24.83;;;10.00;;
10244;SDS011;5167;52.164;10.530;2024-01-10T00:42:57;28.77;;;11.17;;
10244;SDS011;5167;52.164;10.530;2024-01-10T00:45:24;27.20;;;11.27;;
10244;SDS011;5167;52.164;10.530;2024-01-10T00:47:49;21.90;;;11.60;;
10244;SDS011;5167;52.164;10.530;2024-01-10T00:50:15;22.37;;;10.17;;
10244;SDS011;5167;52.164;10.530;2024-01-10T00:52:41;22.30;;;10.87;;
10244;SDS011;5167;52.164;10.530;2024-01-10T00:55:07;28.77;;;11.37;;
10244;SDS011;5167;52.164;10.530;2024-01-10T00:57:33;32.67;;;12.13;;
10244;SDS011;5167;52.164;10.530;2024-01-10T00:59:58;30.00;;;12.53;;
10244;SDS011;5167;52.164;10.530;2024-01-10T01:02:24;23.87;;;10.93;;
10244;SDS011;5167;52.164;10.530;2024-01-10T01:04:49;22.27;;;10.93;;
10244;SDS011;5167;52.164;10.530;2024-01-10T01:07:15;27.70;;;13.03;;
10244;SDS011;5167;52.164;10.530;2024-01-10T01:09:40;26.47;;;11.50;;
10244;SDS011;5167;52.164;10.530;2024-01-10T01:12:06;22.67;;;11.00;;
10244;SDS011;5167;52.164;10.530;2024-01-10T01:14:31;25.73;;;11.10;;
10244;SDS011;5167;52.164;10.530;2024-01-10T01:16:57;33.23;;;11.67;;
10244;SDS011;5167;52.164;10.530;2024-01-10T01:19:22;19.80;;;10.13;;
10244;SDS011;5167;52.164;10.530;2024-01-10T01:21:48;22.90;;;11.83;;
10244;SDS011;5167;52.164;10.530;2024-01-10T01:24:13;23.73;;;11.27;;
10244;SDS011;5167;52.164;10.530;2024-01-10T01:26:39;21.90;;;9.53;;
10244;SDS011;5167;52.164;10.530;2024-01-10T01:29:04;24.13;;;10.40;;
10244;SDS011;5167;52.164;10.530;2024-01-10T01:31:30;24.70;;;11.23;;
10244;SDS011;5167;52.164;10.530;2024-01-10T01:33:56;26.50;;;10.53;;
10244;SDS011;5167;52.164;10.530;2024-01-10T01:36:22;20.43;;;10.43;;
10244;SDS011;5167;52.164;10.530;2024-01-10T01:38:48;25.93;;;11.03;;
10244;SDS011;5167;52.164;10.530;2024-01-10T01:41:13;23.93;;;10.73;;
10244;SDS011;5167;52.164;10.530;2024-01-10T01:43:40;21.23;;;11.10;;
10244;SDS011;5167;52.164;10.530;2024-01-10T01:46:06;25.10;;;10.73;;
10244;SDS011;5167;52.164;10.530;2024-01-10T01:48:32;21.93;;;10.63;;
10244;SDS011;5167;52.164;10.530;2024-01-10T01:51:00;24.73;;;11.10;;
10244;SDS011;5167;52.164;10.530;2024-01-10T01:53:29;17.67;;;9.93;;
10244;SDS011;5167;52.164;10.530;2024-01-10T01:55:55;21.27;;;11.23;;
10244;SDS011;5167;52.164;10.530;2024-01-10T01:58:21;22.77;;;11.13;;
10244;SDS011;5167;52.164;10.530;2024-01-10T02:00:48;17.30;;;9.97;;
10244;SDS011;5167;52.164;10.530;2024-01-10T02:03:14;23.50;;;10.90;;
10244;SDS011;5167;52.164;10.530;2024-01-10T02:05:40;20.03;;;9.37;;
10244;SDS011;5167;52.164;10.530;2024-01-10T02:08:06;23.80;;;10.37;;
10244;SDS011;5167;52.164;10.530;2024-01-10T02:10:31;24.00;;;11.23;;
10244;SDS011;5167;52.164;10.530;2024-01-10T02:12:57;22.97;;;11.17;;
10244;SDS011;5167;52.164;10.530;2024-01-10T02:15:23;20.07;;;10.77;;
10244;SDS011;5167;52.164;10.530;2024-01-10T02:17:49;22.40;;;10.83;;
10244;SDS011;5167;52.164;10.530;2024-01-10T02:20:15;27.93;;;11.37;;
10244;SDS011;5167;52.164;10.530;2024-01-10T02:22:42;25.57;;;11.40;;
10244;SDS011;5167;52.164;10.530;2024-01-10T02:25:08;20.40;;;10.27;;
10244;SDS011;5167;52.164;10.530;2024-01-10T02:27:37;21.77;;;10.90;;
10244;SDS011;5167;52.164;10.530;2024-01-10T02:30:03;26.27;;;10.13;;
10244;SDS011;5167;52.164;10.530;2024-01-10T02:32:30;18.10;;;9.83;;
10244;SDS011;5167;52.164;10.530;2024-01-10T02:34:56;18.23;;;10.13;;
10244;SDS011;5167;52.164;10.530;2024-01-10T02:37:22;22.40;;;11.03;;
10244;SDS011;5167;52.164;10.530;2024-01-10T02:39:47;19.77;;;9.60;;
10244;SDS011;5167;52.164;10.530;2024-01-10T02:42:13;26.10;;;9.47;;
10244;SDS011;5167;52.164;10.530;2024-01-10T02:44:38;22.33;;;11.30;;
10244;SDS011;5167;52.164;10.530;2024-01-10T02:47:05;22.23;;;10.57;;
10244;SDS011;5167;52.164;10.530;2024-01-10T02:49:30;23.57;;;10.43;;
10244;SDS011;5167;52.164;10.530;2024-01-10T02:51:56;27.00;;;11.80;;
10244;SDS011;5167;52.164;10.530;2024-01-10T02:54:21;27.13;;;12.10;;
10244;SDS011;5167;52.164;10.530;2024-01-10T02:56:47;26.57;;;12.43;;
10244;SDS011;5167;52.164;10.530;2024-01-10T02:59:12;33.50;;;12.20;;
10244;SDS011;5167;52.164;10.530;2024-01-10T03:01:38;30.03;;;11.73;;
10244;SDS011;5167;52.164;10.530;2024-01-10T03:04:03;28.27;;;11.60;;
10244;SDS011;5167;52.164;10.530;2024-01-10T03:06:29;24.37;;;11.37;;
10244;SDS011;5167;52.164;10.530;2024-01-10T03:08:54;34.67;;;12.87;;
10244;SDS011;5167;52.164;10.530;2024-01-10T03:11:20;26.57;;;11.73;;
10244;SDS011;5167;52.164;10.530;2024-01-10T03:13:46;26.00;;;11.97;;
10244;SDS011;5167;52.164;10.530;2024-01-10T03:16:12;28.67;;;12.23;;
10244;SDS011;5167;52.164;10.530;2024-01-10T03:18:38;29.30;;;12.47;;
10244;SDS011;5167;52.164;10.530;2024-01-10T03:21:04;36.30;;;12.90;;
10244;SDS011;5167;52.164;10.530;2024-01-10T03:23:29;22.27;;;11.47;;
10244;SDS011;5167;52.164;10.530;2024-01-10T03:25:58;26.40;;;11.67;;
10244;SDS011;5167;52.164;10.530;2024-01-10T03:28:23;23.80;;;11.77;;
10244;SDS011;5167;52.164;10.530;2024-01-10T03:30:49;27.90;;;12.03;;
10244;SDS011;5167;52.164;10.530;2024-01-10T03:33:14;34.30;;;14.03;;
10244;SDS011;5167;52.164;10.530;2024-01-10T03:35:41;33.03;;;13.50;;
10244;SDS011;5167;52.164;10.530;2024-01-10T03:38:07;26.73;;;12.03;;
10244;SDS011;5167;52.164;10.530;2024-01-10T03:40:32;28.23;;;13.30;;
10244;SDS011;5167;52.164;10.530;2024-01-10T03:42:58;34.60;;;12.27;;
10244;SDS011;5167;52.164;10.530;2024-01-10T03:45:23;31.20;;;12.70;;
10244;SDS011;5167;52.164;10.530;2024-01-10T03:47:49;33.67;;;12.53;;
10244;SDS011;5167;52.164;10.530;2024-01-10T03:50:18;25.20;;;11.87;;
10244;SDS011;5167;52.164;10.530;2024-01-10T03:52:45;27.23;;;13.27;;
10244;SDS011;5167;52.164;10.530;2024-01-10T03:55:14;28.53;;;12.33;;
10244;SDS011;5167;52.164;10.530;2024-01-10T03:57:40;33.30;;;12.37;;
10244;SDS011;5167;52.164;10.530;2024-01-10T04:00:06;30.00;;;11.93;;
10244;SDS011;5167;52.164;10.530;2024-01-10T04:02:33;31.13;;;12.67;;
10244;SDS011;5167;52.164;10.530;2024-01-10T04:04:58;31.77;;;13.50;;
10244;SDS011;5167;52.164;10.530;2024-01-10T04:07:25;31.50;;;13.43;;
10244;SDS011;5167;52.164;10.530;2024-01-10T04:09:51;27.40;;;11.80;;
10244;SDS011;5167;52.164;10.530;2024-01-10T04:12:17;23.93;;;12.57;;
10244;SDS011;5167;52.164;10.530;2024-01-10T04:14:42;34.27;;;14.67;;
10244;SDS011;5167;52.164;10.530;2024-01-10T04:17:08;25.10;;;13.13;;
10244;SDS011;5167;52.164;10.530;2024-01-10T04:19:34;27.13;;;13.10;;
10244;SDS011;5167;52.164;10.530;2024-01-10T04:21:59;33.00;;;13.53;;
10244;SDS011;5167;52.164;10.530;2024-01-10T04:24:25;39.73;;;13.13;;
10244;SDS011;5167;52.164;10.530;2024-01-10T04:26:51;27.20;;;12.37;;
10244;SDS011;5167;52.164;10.530;2024-01-10T04:29:16;28.20;;;12.27;;
10244;SDS011;5167;52.164;10.530;2024-01-10T04:31:42;27.97;;;12.47;;
10244;SDS011;5167;52.164;10.530;2024-01-10T04:34:07;25.53;;;11.77;;
10244;SDS011;5167;52.164;10.530;2024-01-10T04:36:33;32.53;;;13.50;;
10244;SDS011;5167;52.164;10.530;2024-01-10T04:38:58;33.17;;;13.77;;
10244;SDS011;5167;52.164;10.530;2024-01-10T04:41:24;32.03;;;13.57;;
10244;SDS011;5167;52.164;10.530;2024-01-10T04:43:50;28.07;;;13.43;;
10244;SDS011;5167;52.164;10.530;2024-01-10T04:46:16;30.50;;;13.03;;
10244;SDS011;5167;52.164;10.530;2024-01-10T04:48:41;32.43;;;14.83;;
10244;SDS011;5167;52.164;10.530;2024-01-10T04:51:07;27.40;;;13.47;;
10244;SDS011;5167;52.164;10.530;2024-01-10T04:53:32;29.33;;;14.67;;
10244;SDS011;5167;52.164;10.530;2024-01-10T04:55:58;40.30;;;14.37;;
10244;SDS011;5167;52.164;10.530;2024-01-10T04:58:24;33.07;;;15.10;;
10244;SDS011;5167;52.164;10.530;2024-01-10T05:00:49;29.80;;;14.03;;
10244;SDS011;5167;52.164;10.530;2024-01-10T05:03:15;39.23;;;14.73;;
10244;SDS011;5167;52.164;10.530;2024-01-10T05:05:41;36.70;;;13.80;;
10244;SDS011;5167;52.164;10.530;2024-01-10T05:08:06;33.00;;;14.80;;
10244;SDS011;5167;52.164;10.530;2024-01-10T05:10:32;37.23;;;15.20;;
10244;SDS011;5167;52.164;10.530;2024-01-10T05:12:57;38.87;;;13.50;;
10244;SDS011;5167;52.164;10.530;2024-01-10T05:15:22;38.63;;;15.10;;
10244;SDS011;5167;52.164;10.530;2024-01-10T05:17:48;31.23;;;13.43;;
10244;SDS011;5167;52.164;10.530;2024-01-10T05:20:13;34.10;;;14.37;;
10244;SDS011;5167;52.164;10.530;2024-01-10T05:22:39;29.93;;;13.30;;
10244;SDS011;5167;52.164;10.530;2024-01-10T05:25:05;39.63;;;15.10;;
10244;SDS011;5167;52.164;10.530;2024-01-10T05:27:31;32.73;;;14.10;;
10244;SDS011;5167;52.164;10.530;2024-01-10T05:29:57;33.33;;;14.50;;
10244;SDS011;5167;52.164;10.530;2024-01-10T05:32:24;29.57;;;14.57;;
10244;SDS011;5167;52.164;10.530;2024-01-10T05:34:50;28.10;;;13.30;;
10244;SDS011;5167;52.164;10.530;2024-01-10T05:37:15;34.10;;;13.93;;
10244;SDS011;5167;52.164;10.530;2024-01-10T05:39:41;32.90;;;15.77;;
10244;SDS011;5167;52.164;10.530;2024-01-10T05:42:06;29.90;;;14.03;;
10244;SDS011;5167;52.164;10.530;2024-01-10T05:44:32;31.43;;;13.23;;
10244;SDS011;5167;52.164;10.530;2024-01-10T05:46:57;32.53;;;14.17;;
10244;SDS011;5167;52.164;10.530;2024-01-10T05:49:24;29.93;;;14.87;;
10244;SDS011;5167;52.164;10.530;2024-01-10T05:51:50;35.13;;;14.50;;
10244;SDS011;5167;52.164;10.530;2024-01-10T05:54:16;27.63;;;12.90;;
10244;SDS011;5167;52.164;10.530;2024-01-10T05:56:43;39.63;;;15.07;;
10244;SDS011;5167;52.164;10.530;2024-01-10T05:59:08;36.40;;;15.43;;
10244;SDS011;5167;52.164;10.530;2024-01-10T06:01:36;33.97;;;15.97;;
10244;SDS011;5167;52.164;10.530;2024-01-10T06:04:03;34.37;;;14.07;;
10244;SDS011;5167;52.164;10.530;2024-01-10T06:06:29;38.43;;;16.23;;
10244;SDS011;5167;52.164;10.530;2024-01-10T06:08:55;31.77;;;14.97;;
10244;SDS011;5167;52.164;10.530;2024-01-10T06:11:20;32.83;;;14.67;;
10244;SDS011;5167;52.164;10.530;2024-01-10T06:13:46;33.07;;;15.03;;
10244;SDS011;5167;52.164;10.530;2024-01-10T06:16:11;32.97;;;14.20;;
10244;SDS011;5167;52.164;10.530;2024-01-10T06:18:38;35.60;;;15.23;;
10244;SDS011;5167;52.164;10.530;2024-01-10T06:21:04;34.10;;;15.30;;
10244;SDS011;5167;52.164;10.530;2024-01-10T06:23:29;28.97;;;14.13;;
10244;SDS011;5167;52.164;10.530;2024-01-10T06:25:55;38.40;;;15.97;;
10244;SDS011;5167;52.164;10.530;2024-01-10T06:28:20;30.17;;;14.83;;
10244;SDS011;5167;52.164;10.530;2024-01-10T06:30:46;31.63;;;15.00;;
10244;SDS011;5167;52.164;10.530;2024-01-10T06:33:12;39.90;;;15.67;;
10244;SDS011;5167;52.164;10.530;2024-01-10T06:35:37;38.57;;;16.87;;
10244;SDS011;5167;52.164;10.530;2024-01-10T06:38:03;40.47;;;16.03;;
10244;SDS011;5167;52.164;10.530;2024-01-10T06:40:29;39.97;;;16.60;;
10244;SDS011;5167;52.164;10.530;2024-01-10T06:42:54;42.40;;;17.63;;
10244;SDS011;5167;52.164;10.530;2024-01-10T06:45:20;38.43;;;16.90;;
10244;SDS011;5167;52.164;10.530;2024-01-10T06:47:45;34.57;;;15.67;;
10244;SDS011;5167;52.164;10.530;2024-01-10T06:50:11;35.67;;;15.00;;
10244;SDS011;5167;52.164;10.530;2024-01-10T06:52:36;40.30;;;16.10;;
10244;SDS011;5167;52.164;10.530;2024-01-10T06:55:02;30.77;;;14.37;;
10244;SDS011;5167;52.164;10.530;2024-01-10T06:57:29;32.17;;;15.30;;
10244;SDS011;5167;52.164;10.530;2024-01-10T06:59:54;34.23;;;14.63;;
10244;SDS011;5167;52.164;10.530;2024-01-10T07:02:20;40.37;;;16.83;;
10244;SDS011;5167;52.164;10.530;2024-01-10T07:04:45;34.77;;;15.83;;
10244;SDS011;5167;52.164;10.530;2024-01-10T07:07:13;31.40;;;14.40;;
10244;SDS011;5167;52.164;10.530;2024-01-10T07:09:39;30.07;;;14.60;;
10244;SDS011;5167;52.164;10.530;2024-01-10T07:12:05;40.03;;;15.80;;
10244;SDS011;5167;52.164;10.530;2024-01-10T07:14:32;29.73;;;15.80;;
10244;SDS011;5167;52.164;10.530;2024-01-10T07:16:57;34.23;;;15.17;;
10244;SDS011;5167;52.164;10.530;2024-01-10T07:19:23;37.00;;;15.57;;
10244;SDS011;5167;52.164;10.530;2024-01-10T07:21:49;32.90;;;16.70;;
10244;SDS011;5167;52.164;10.530;2024-01-10T07:24:15;37.50;;;17.43;;
10244;SDS011;5167;52.164;10.530;2024-01-10T07:26:40;29.97;;;13.93;;
10244;SDS011;5167;52.164;10.530;2024-01-10T07:29:06;32.37;;;15.73;;
10244;SDS011;5167;52.164;10.530;2024-01-10T07:31:33;39.87;;;16.57;;
10244;SDS011;5167;52.164;10.530;2024-01-10T07:33:59;34.60;;;15.60;;
10244;SDS011;5167;52.164;10.530;2024-01-10T07:36:24;42.03;;;16.17;;
10244;SDS011;5167;52.164;10.530;2024-01-10T07:38:55;31.80;;;15.33;;
10244;SDS011;5167;52.164;10.530;2024-01-10T07:41:22;36.97;;;15.67;;
10244;SDS011;5167;52.164;10.530;2024-01-10T07:43:47;31.97;;;14.83;;
10244;SDS011;5167;52.164;10.530;2024-01-10T07:46:13;35.53;;;16.17;;
10244;SDS011;5167;52.164;10.530;2024-01-10T07:48:39;40.67;;;15.47;;
10244;SDS011;5167;52.164;10.530;2024-01-10T07:51:05;40.37;;;15.93;;
10244;SDS011;5167;52.164;10.530;2024-01-10T07:53:30;38.47;;;16.67;;
10244;SDS011;5167;52.164;10.530;2024-01-10T07:55:56;42.97;;;17.90;;
10244;SDS011;5167;52.164;10.530;2024-01-10T07:58:21;43.37;;;19.87;;
10244;SDS011;5167;52.164;10.530;2024-01-10T08:00:47;36.53;;;15.47;;
10244;SDS011;5167;52.164;10.530;2024-01-10T08:03:12;41.67;;;18.40;;
10244;SDS011;5167;52.164;10.530;2024-01-10T08:05:38;40.63;;;17.10;;
10244;SDS011;5167;52.164;10.530;2024-01-10T08:08:03;42.57;;;17.57;;
10244;SDS011;5167;52.164;10.530;2024-01-10T08:10:29;39.83;;;18.77;;
10244;SDS011;5167;52.164;10.530;2024-01-10T08:12:55;41.47;;;19.30;;
10244;SDS011;5167;52.164;10.530;2024-01-10T08:15:21;38.00;;;16.83;;
10244;SDS011;5167;52.164;10.530;2024-01-10T08:17:47;41.20;;;17.10;;
10244;SDS011;5167;52.164;10.530;2024-01-10T08:20:12;41.90;;;17.87;;
10244;SDS011;5167;52.164;10.530;2024-01-10T08:22:39;44.57;;;18.00;;
10244;SDS011;5167;52.164;10.530;2024-01-10T08:25:05;41.40;;;17.53;;
10244;SDS011;5167;52.164;10.530;2024-01-10T08:27:32;40.47;;;18.17;;
10244;SDS011;5167;52.164;10.530;2024-01-10T08:29:58;46.67;;;19.27;;
10244;SDS011;5167;52.164;10.530;2024-01-10T08:32:24;45.93;;;18.23;;
10244;SDS011;5167;52.164;10.530;2024-01-10T08:34:49;39.40;;;17.83;;
10244;SDS011;5167;52.164;10.530;2024-01-10T08:37:15;39.17;;;17.20;;
10244;SDS011;5167;52.164;10.530;2024-01-10T08:39:42;40.23;;;18.20;;
10244;SDS011;5167;52.164;10.530;2024-01-10T08:42:09;51.00;;;19.17;;
10244;SDS011;5167;52.164;10.530;2024-01-10T08:44:34;45.20;;;19.40;;
10244;SDS011;5167;52.164;10.530;2024-01-10T08:47:00;40.90;;;17.70;;
10244;SDS011;5167;52.164;10.530;2024-01-10T08:49:26;43.70;;;18.27;;
10244;SDS011;5167;52.164;10.530;2024-01-10T08:51:51;38.83;;;16.73;;
10244;SDS011;5167;52.164;10.530;2024-01-10T08:54:18;42.67;;;17.70;;
10244;SDS011;5167;52.164;10.530;2024-01-10T08:56:45;43.90;;;18.63;;
10244;SDS011;5167;52.164;10.530;2024-01-10T08:59:13;45.00;;;19.07;;
10244;SDS011;5167;52.164;10.530;2024-01-10T09:01:39;45.10;;;18.13;;
10244;SDS011;5167;52.164;10.530;2024-01-10T09:04:05;47.60;;;18.27;;
10244;SDS011;5167;52.164;10.530;2024-01-10T09:06:31;44.83;;;18.67;;
10244;SDS011;5167;52.164;10.530;2024-01-10T09:09:02;41.70;;;19.93;;
10244;SDS011;5167;52.164;10.530;2024-01-10T09:11:28;41.17;;;18.63;;
10244;SDS011;5167;52.164;10.530;2024-01-10T09:13:53;56.20;;;19.20;;
10244;SDS011;5167;52.164;10.530;2024-01-10T09:16:19;39.97;;;18.60;;
10244;SDS011;5167;52.164;10.530;2024-01-10T09:18:44;42.60;;;18.30;;
10244;SDS011;5167;52.164;10.530;2024-01-10T09:21:10;47.17;;;21.53;;
10244;SDS011;5167;52.164;10.530;2024-01-10T09:23:36;41.57;;;18.03;;
10244;SDS011;5167;52.164;10.530;2024-01-10T09:26:02;42.63;;;18.93;;
10244;SDS011;5167;52.164;10.530;2024-01-10T09:28:27;50.57;;;20.17;;
10244;SDS011;5167;52.164;10.530;2024-01-10T09:30:53;44.57;;;20.87;;
10244;SDS011;5167;52.164;10.530;2024-01-10T09:33:19;43.47;;;20.43;;
10244;SDS011;5167;52.164;10.530;2024-01-10T09:35:44;41.90;;;19.90;;
10244;SDS011;5167;52.164;10.530;2024-01-10T09:38:10;57.90;;;21.97;;
10244;SDS011;5167;52.164;10.530;2024-01-10T09:40:36;51.17;;;20.57;;
10244;SDS011;5167;52.164;10.530;2024-01-10T09:43:02;52.07;;;22.60;;
10244;SDS011;5167;52.164;10.530;2024-01-10T09:45:30;56.63;;;22.03;;
10244;SDS011;5167;52.164;10.530;2024-01-10T09:47:59;51.27;;;20.40;;
10244;SDS011;5167;52.164;10.530;2024-01-10T09:50:25;49.77;;;22.67;;
10244;SDS011;5167;52.164;10.530;2024-01-10T09:52:51;50.60;;;21.60;;
10244;SDS011;5167;52.164;10.530;2024-01-10T09:57:46;54.80;;;21.80;;
10244;SDS011;5167;52.164;10.530;2024-01-10T10:00:12;54.00;;;21.30;;
10244;SDS011;5167;52.164;10.530;2024-01-10T10:02:40;45.67;;;21.93;;
10244;SDS011;5167;52.164;10.530;2024-01-10T10:05:13;47.67;;;20.50;;
10244;SDS011;5167;52.164;10.530;2024-01-10T10:07:49;43.43;;;21.07;;
10244;SDS011;5167;52.164;10.530;2024-01-10T10:10:18;57.73;;;23.00;;
10244;SDS011;5167;52.164;10.530;2024-01-10T10:12:47;57.07;;;21.67;;
10244;SDS011;5167;52.164;10.530;2024-01-10T10:17:46;51.27;;;22.13;;
10244;SDS011;5167;52.164;10.530;2024-01-10T10:20:23;55.13;;;23.93;;
10244;SDS011;5167;52.164;10.530;2024-01-10T10:25:26;47.73;;;20.57;;
10244;SDS011;5167;52.164;10.530;2024-01-10T10:27:56;53.53;;;22.80;;
10244;SDS011;5167;52.164;10.530;2024-01-10T10:30:22;49.33;;;20.93;;
10244;SDS011;5167;52.164;10.530;2024-01-10T10:32:48;50.03;;;21.33;;
10244;SDS011;5167;52.164;10.530;2024-01-10T10:35:14;53.57;;;22.60;;
10244;SDS011;5167;52.164;10.530;2024-01-10T10:37:40;49.60;;;20.67;;
10244;SDS011;5167;52.164;10.530;2024-01-10T10:40:05;61.57;;;22.33;;
10244;SDS011;5167;52.164;10.530;2024-01-10T10:42:34;59.53;;;23.47;;
10244;SDS011;5167;52.164;10.530;2024-01-10T10:45:02;53.93;;;22.23;;
10244;SDS011;5167;52.164;10.530;2024-01-10T10:47:30;57.63;;;22.47;;
10244;SDS011;5167;52.164;10.530;2024-01-10T10:50:02;52.13;;;22.20;;
10244;SDS011;5167;52.164;10.530;2024-01-10T10:52:29;52.63;;;22.70;;
10244;SDS011;5167;52.164;10.530;2024-01-10T10:54:56;47.60;;;20.73;;
10244;SDS011;5167;52.164;10.530;2024-01-10T10:57:27;54.53;;;22.73;;
10244;SDS011;5167;52.164;10.530;2024-01-10T10:59:53;52.40;;;22.90;;
10244;SDS011;5167;52.164;10.530;2024-01-10T11:02:21;53.83;;;21.97;;
10244;SDS011;5167;52.164;10.530;2024-01-10T11:04:48;55.47;;;22.97;;
10244;SDS011;5167;52.164;10.530;2024-01-10T11:07:14;59.90;;;22.17;;
10244;SDS011;5167;52.164;10.530;2024-01-10T11:09:40;55.00;;;23.90;;
10244;SDS011;5167;52.164;10.530;2024-01-10T11:12:20;55.47;;;22.80;;
10244;SDS011;5167;52.164;10.530;2024-01-10T11:23:41;53.50;;;23.10;;
10244;SDS011;5167;52.164;10.530;2024-01-10T11:26:13;50.47;;;20.87;;
10244;SDS011;5167;52.164;10.530;2024-01-10T11:28:40;45.10;;;21.30;;
10244;SDS011;5167;52.164;10.530;2024-01-10T11:31:06;47.20;;;20.73;;
10244;SDS011;5167;52.164;10.530;2024-01-10T11:33:44;49.97;;;21.70;;
10244;SDS011;5167;52.164;10.530;2024-01-10T11:36:14;47.63;;;21.63;;
10244;SDS011;5167;52.164;10.530;2024-01-10T11:38:41;47.83;;;21.83;;
10244;SDS011;5167;52.164;10.530;2024-01-10T11:41:34;47.67;;;19.03;;
10244;SDS011;5167;52.164;10.530;2024-01-10T11:46:38;46.87;;;20.03;;
10244;SDS011;5167;52.164;10.530;2024-01-10T11:49:06;53.10;;;22.00;;
10244;SDS011;5167;52.164;10.530;2024-01-10T11:51:32;61.90;;;22.57;;
10244;SDS011;5167;52.164;10.530;2024-01-10T11:54:00;47.37;;;20.73;;
10244;SDS011;5167;52.164;10.530;2024-01-10T11:56:25;52.00;;;22.43;;
10244;SDS011;5167;52.164;10.530;2024-01-10T11:59:07;45.07;;;20.20;;
10244;SDS011;5167;52.164;10.530;2024-01-10T12:01:34;49.00;;;20.00;;
10244;SDS011;5167;52.164;10.530;2024-01-10T12:04:02;46.70;;;21.10;;
10244;SDS011;5167;52.164;10.530;2024-01-10T12:06:29;49.83;;;20.73;;
10244;SDS011;5167;52.164;10.530;2024-01-10T12:08:56;46.03;;;21.73;;
10244;SDS011;5167;52.164;10.530;2024-01-10T12:11:22;57.73;;;24.07;;
10244;SDS011;5167;52.164;10.530;2024-01-10T12:13:48;47.57;;;21.30;;
10244;SDS011;5167;52.164;10.530;2024-01-10T12:16:14;49.33;;;22.33;;
10244;SDS011;5167;52.164;10.530;2024-01-10T12:18:42;49.00;;;21.07;;
10244;SDS011;5167;52.164;10.530;2024-01-10T12:21:08;47.63;;;21.00;;
10244;SDS011;5167;52.164;10.530;2024-01-10T12:23:35;51.00;;;21.87;;
10244;SDS011;5167;52.164;10.530;2024-01-10T12:26:01;47.00;;;20.43;;
10244;SDS011;5167;52.164;10.530;2024-01-10T12:28:29;42.60;;;20.07;;
10244;SDS011;5167;52.164;10.530;2024-01-10T12:30:55;43.93;;;21.57;;
10244;SDS011;5167;52.164;10.530;2024-01-10T12:33:23;49.63;;;20.07;;
10244;SDS011;5167;52.164;10.530;2024-01-10T12:36:08;41.90;;;19.10;;
10244;SDS011;5167;52.164;10.530;2024-01-10T12:38:35;48.10;;;20.03;;
10244;SDS011;5167;52.164;10.530;2024-01-10T12:41:02;45.97;;;20.30;;
10244;SDS011;5167;52.164;10.530;2024-01-10T12:43:29;55.17;;;22.47;;
10244;SDS011;5167;52.164;10.530;2024-01-10T12:46:08;52.23;;;23.27;;
10244;SDS011;5167;52.164;10.530;2024-01-10T12:48:41;55.13;;;22.83;;
10244;SDS011;5167;52.164;10.530;2024-01-10T12:51:07;56.77;;;24.60;;
10244;SDS011;5167;52.164;10.530;2024-01-10T12:53:41;56.60;;;22.80;;
10244;SDS011;5167;52.164;10.530;2024-01-10T12:56:08;46.37;;;20.97;;
10244;SDS011;5167;52.164;10.530;2024-01-10T12:58:39;51.17;;;22.00;;
10244;SDS011;5167;52.164;10.530;2024-01-10T13:01:06;53.90;;;22.23;;
10244;SDS011;5167;52.164;10.530;2024-01-10T13:03:33;49.33;;;22.53;;
10244;SDS011;5167;52.164;10.530;2024-01-10T13:05:59;53.03;;;22.50;;
10244;SDS011;5167;52.164;10.530;2024-01-10T13:08:24;54.27;;;23.87;;
10244;SDS011;5167;52.164;10.530;2024-01-10T13:10:50;53.73;;;21.80;;
10244;SDS011;5167;52.164;10.530;2024-01-10T13:13:16;58.63;;;23.13;;
10244;SDS011;5167;52.164;10.530;2024-01-10T13:15:43;44.27;;;21.07;;
10244;SDS011;5167;52.164;10.530;2024-01-10T13:18:09;49.27;;;22.03;;
10244;SDS011;5167;52.164;10.530;2024-01-10T13:20:38;48.03;;;20.70;;
10244;SDS011;5167;52.164;10.530;2024-01-10T13:23:04;47.17;;;20.70;;
10244;SDS011;5167;52.164;10.530;2024-01-10T13:25:30;41.03;;;19.83;;
10244;SDS011;5167;52.164;10.530;2024-01-10T13:27:55;52.77;;;22.27;;
10244;SDS011;5167;52.164;10.530;2024-01-10T13:30:22;50.83;;;21.23;;
10244;SDS011;5167;52.164;10.530;2024-01-10T13:32:47;44.90;;;20.00;;
10244;SDS011;5167;52.164;10.530;2024-01-10T13:35:13;52.03;;;20.57;;
10244;SDS011;5167;52.164;10.530;2024-01-10T13:37:39;51.53;;;21.13;;
10244;SDS011;5167;52.164;10.530;2024-01-10T13:40:08;53.43;;;20.63;;
10244;SDS011;5167;52.164;10.530;2024-01-10T13:42:37;54.03;;;24.00;;
10244;SDS011;5167;52.164;10.530;2024-01-10T13:45:09;49.93;;;22.70;;
10244;SDS011;5167;52.164;10.530;2024-01-10T13:47:38;52.60;;;23.23;;
10244;SDS011;5167;52.164;10.530;2024-01-10T13:50:04;54.73;;;22.80;;
10244;SDS011;5167;52.164;10.530;2024-01-10T13:52:31;58.67;;;23.67;;
10244;SDS011;5167;52.164;10.530;2024-01-10T13:55:00;52.90;;;22.63;;
10244;SDS011;5167;52.164;10.530;2024-01-10T13:57:26;55.00;;;23.87;;
10244;SDS011;5167;52.164;10.530;2024-01-10T13:59:52;45.90;;;19.90;;
10244;SDS011;5167;52.164;10.530;2024-01-10T14:02:20;48.07;;;19.70;;
10244;SDS011;5167;52.164;10.530;2024-01-10T14:04:49;52.17;;;22.57;;
10244;SDS011;5167;52.164;10.530;2024-01-10T14:07:15;52.20;;;22.73;;
10244;SDS011;5167;52.164;10.530;2024-01-10T14:09:41;50.03;;;22.03;;
10244;SDS011;5167;52.164;10.530;2024-01-10T14:12:06;51.70;;;20.47;;
10244;SDS011;5167;52.164;10.530;2024-01-10T14:14:32;53.70;;;22.90;;
10244;SDS011;5167;52.164;10.530;2024-01-10T14:16:58;47.43;;;20.87;;
10244;SDS011;5167;52.164;10.530;2024-01-10T14:19:23;45.83;;;20.97;;
10244;SDS011;5167;52.164;10.530;2024-01-10T14:21:49;55.53;;;24.30;;
10244;SDS011;5167;52.164;10.530;2024-01-10T14:24:14;49.77;;;20.87;;
10244;SDS011;5167;52.164;10.530;2024-01-10T14:26:41;55.93;;;22.57;;
10244;SDS011;5167;52.164;10.530;2024-01-10T14:29:06;54.23;;;21.00;;
10244;SDS011;5167;52.164;10.530;2024-01-10T14:31:32;51.13;;;22.97;;
10244;SDS011;5167;52.164;10.530;2024-01-10T14:33:57;53.90;;;22.90;;
10244;SDS011;5167;52.164;10.530;2024-01-10T14:36:23;48.70;;;22.53;;